createdAt,value
2019-04-20T00:01:18.644Z,16.80
2019-04-20T00:03:46.733Z,18.20
2019-04-20T00:06:17.362Z,19.67
2019-04-20T00:08:57.880Z,19.70
2019-04-20T00:11:26.311Z,18.80
2019-04-20T00:13:59.893Z,23.67
2019-04-20T00:16:23.122Z,19.17
2019-04-20T00:18:56.577Z,16.87
2019-04-20T00:22:00.361Z,17.10
2019-04-20T00:25:00.428Z,16.77
2019-04-20T00:27:44.300Z,19.53
2019-04-20T00:30:20.628Z,17.70
2019-04-20T00:32:41.331Z,18.20
2019-04-20T00:34:58.124Z,15.93
2019-04-20T00:37:28.289Z,19.60
2019-04-20T00:39:59.479Z,19.00
2019-04-20T00:42:38.017Z,18.53
2019-04-20T00:45:09.565Z,19.20
2019-04-20T00:47:42.900Z,20.10
2019-04-20T00:50:21.330Z,21.47
2019-04-20T00:52:51.438Z,23.30
2019-04-20T00:55:08.338Z,18.80
2019-04-20T00:58:09.385Z,21.67
2019-04-20T01:00:54.235Z,22.90
2019-04-20T01:03:14.376Z,20.53
2019-04-20T01:06:11.066Z,19.93
2019-04-20T01:08:31.947Z,20.63
2019-04-20T01:11:02.725Z,20.73
2019-04-20T01:13:42.198Z,20.47
2019-04-20T01:16:14.323Z,20.23
2019-04-20T01:18:36.933Z,18.40
2019-04-20T01:21:14.072Z,20.90
2019-04-20T01:24:02.819Z,22.40
2019-04-20T01:26:29.479Z,21.73
2019-04-20T01:29:12.089Z,19.60
2019-04-20T01:31:38.360Z,24.60
2019-04-20T01:34:15.024Z,20.00
2019-04-20T01:36:52.013Z,20.57
2019-04-20T01:39:18.335Z,21.53
2019-04-20T01:41:39.242Z,22.17
2019-04-20T01:44:09.484Z,19.23
2019-04-20T01:46:46.702Z,18.17
2019-04-20T01:49:16.778Z,20.50
2019-04-20T01:51:53.726Z,32.37
2019-04-20T01:54:48.473Z,20.60
2019-04-20T01:57:26.119Z,18.60
2019-04-20T02:00:06.085Z,21.43
2019-04-20T02:02:47.544Z,20.20
2019-04-20T02:05:21.249Z,20.30
2019-04-20T02:07:49.391Z,20.00
2019-04-20T02:10:20.032Z,20.17
2019-04-20T02:13:09.766Z,19.57
2019-04-20T02:15:47.915Z,21.83
2019-04-20T02:18:28.193Z,20.43
2019-04-20T02:20:59.852Z,22.27
2019-04-20T02:23:29.395Z,19.70
2019-04-20T02:25:46.519Z,18.27
2019-04-20T02:28:36.205Z,19.43
2019-04-20T02:31:23.031Z,22.43
2019-04-20T02:34:15.678Z,18.67
2019-04-20T02:36:58.574Z,18.80
2019-04-20T02:44:36.474Z,20.20
2019-04-20T02:47:11.764Z,20.90
2019-04-20T02:49:36.207Z,18.20
2019-04-20T02:52:06.756Z,17.77
2019-04-20T02:57:12.252Z,21.03
2019-04-20T02:59:59.492Z,18.87
2019-04-20T03:02:01.506Z,18.63
2019-04-20T03:04:25.800Z,19.73
2019-04-20T03:09:36.446Z,18.23
2019-04-20T03:12:10.619Z,16.73
2019-04-20T03:14:34.976Z,16.70
2019-04-20T03:17:15.302Z,20.33
2019-04-20T03:19:38.674Z,16.40
2019-04-20T03:22:18.899Z,19.50
2019-04-20T03:24:51.369Z,18.97
2019-04-20T03:27:19.463Z,22.30
2019-04-20T03:31:00.509Z,18.77
2019-04-20T03:35:25.080Z,24.03
2019-04-20T03:37:55.408Z,21.47
2019-04-20T03:40:19.307Z,21.83
2019-04-20T03:42:54.919Z,16.60
2019-04-20T03:45:27.070Z,17.30
2019-04-20T03:48:09.148Z,17.13
2019-04-20T03:50:46.366Z,18.43
2019-04-20T03:53:23.025Z,15.13
2019-04-20T03:56:35.132Z,18.90
2019-04-20T03:59:45.739Z,18.40
2019-04-20T04:02:29.830Z,16.90
2019-04-20T04:04:59.093Z,17.77
2019-04-20T04:07:24.890Z,17.33
2019-04-20T04:10:08.460Z,15.57
2019-04-20T04:12:58.788Z,16.80
2019-04-20T04:15:29.636Z,18.17
2019-04-20T04:18:07.529Z,19.40
2019-04-20T04:20:37.658Z,16.03
2019-04-20T04:23:43.190Z,12.80
2019-04-20T04:26:10.385Z,17.53
2019-04-20T04:28:41.051Z,19.13
2019-04-20T04:31:16.313Z,16.70
2019-04-20T04:36:14.037Z,19.20
2019-04-20T04:38:53.679Z,15.03
2019-04-20T04:41:36.708Z,12.90
2019-04-20T04:43:54.208Z,14.67
2019-04-20T04:46:07.901Z,27.30
2019-04-20T04:48:42.792Z,15.77
2019-04-20T04:51:18.508Z,23.23
2019-04-20T04:53:51.128Z,19.20
2019-04-20T04:56:16.936Z,21.83
2019-04-20T04:58:44.637Z,17.10
2019-04-20T05:01:21.724Z,15.33
2019-04-20T05:04:14.643Z,17.13
2019-04-20T05:06:33.234Z,16.90
2019-04-20T05:08:59.996Z,16.97
2019-04-20T05:11:25.863Z,16.57
2019-04-20T05:14:02.225Z,16.97
2019-04-20T05:16:45.063Z,18.43
2019-04-20T05:19:19.676Z,15.67
2019-04-20T05:22:07.942Z,14.67
2019-04-20T05:24:53.621Z,16.03
2019-04-20T05:27:45.175Z,17.43
2019-04-20T05:29:57.158Z,16.17
2019-04-20T05:32:37.878Z,20.87
2019-04-20T05:35:21.527Z,18.33
2019-04-20T05:38:09.355Z,15.17
2019-04-20T05:40:23.353Z,15.63
2019-04-20T05:43:03.187Z,13.30
2019-04-20T05:45:25.152Z,15.90
2019-04-20T05:47:53.668Z,17.50
2019-04-20T05:50:33.269Z,19.30
2019-04-20T05:53:09.951Z,15.63
2019-04-20T05:55:47.031Z,13.50
2019-04-20T05:58:26.387Z,17.60
2019-04-20T06:01:00.227Z,14.20
2019-04-20T06:03:26.112Z,14.57
2019-04-20T06:06:06.178Z,16.17
2019-04-20T06:08:41.685Z,14.20
2019-04-20T06:11:03.836Z,14.60
2019-04-20T06:13:32.428Z,15.67
2019-04-20T06:16:12.861Z,13.80
2019-04-20T06:18:49.748Z,14.13
2019-04-20T06:21:35.470Z,12.13
2019-04-20T06:24:02.638Z,13.90
2019-04-20T06:29:07.312Z,15.50
2019-04-20T06:31:39.805Z,12.97
2019-04-20T06:36:54.243Z,13.30
2019-04-20T06:39:30.924Z,13.03
2019-04-20T06:42:15.299Z,14.80
2019-04-20T06:52:32.402Z,16.57
2019-04-20T06:55:36.878Z,14.27
2019-04-20T07:00:15.338Z,15.63
2019-04-20T07:02:48.325Z,16.00
2019-04-20T07:05:24.788Z,19.93
2019-04-20T07:08:27.727Z,17.10
2019-04-20T07:10:43.849Z,14.73
2019-04-20T07:13:07.287Z,18.43
2019-04-20T07:15:46.543Z,17.57
2019-04-20T07:18:23.223Z,18.17
2019-04-20T07:21:04.277Z,15.17
2019-04-20T07:23:32.640Z,13.30
2019-04-20T07:26:13.868Z,15.33
2019-04-20T07:28:41.130Z,14.40
2019-04-20T07:31:11.316Z,13.90
2019-04-20T07:33:39.302Z,11.50
2019-04-20T07:36:15.803Z,15.13
2019-04-20T07:38:51.782Z,13.70
2019-04-20T07:41:23.602Z,13.90
2019-04-20T07:44:29.269Z,15.37
2019-04-20T07:46:52.486Z,14.07
2019-04-20T07:49:15.756Z,13.00
2019-04-20T07:51:36.717Z,11.90
2019-04-20T07:54:38.680Z,14.50
2019-04-20T07:57:05.081Z,12.60
2019-04-20T07:59:27.645Z,15.63
2019-04-20T08:02:38.123Z,15.10
2019-04-20T08:05:36.328Z,15.53
2019-04-20T08:08:14.664Z,12.37
2019-04-20T08:10:42.864Z,13.13
2019-04-20T08:13:27.541Z,14.73
2019-04-20T08:15:57.037Z,14.50
2019-04-20T08:18:35.015Z,11.00
2019-04-20T08:21:21.014Z,12.67
2019-04-20T08:23:33.564Z,12.93
2019-04-20T08:25:58.967Z,13.60
2019-04-20T08:28:35.879Z,11.23
2019-04-20T08:31:33.578Z,12.77
2019-04-20T08:34:18.644Z,19.33
2019-04-20T08:36:51.416Z,10.67
2019-04-20T08:39:46.942Z,14.20
2019-04-20T08:42:06.345Z,16.90
2019-04-20T08:47:27.434Z,17.63
2019-04-20T08:53:20.274Z,15.37
2019-04-20T08:55:37.689Z,15.73
2019-04-20T08:57:54.348Z,13.00
2019-04-20T09:00:29.448Z,16.20
2019-04-20T09:03:07.896Z,13.10
2019-04-20T09:05:40.035Z,11.60
2019-04-20T09:08:09.236Z,15.60
2019-04-20T09:10:49.302Z,12.70
2019-04-20T09:13:15.696Z,15.20
2019-04-20T09:15:36.221Z,12.13
2019-04-20T09:18:20.604Z,13.27
2019-04-20T09:20:50.702Z,14.20
2019-04-20T09:23:26.522Z,13.53
2019-04-20T09:26:12.932Z,13.10
2019-04-20T09:28:38.402Z,13.20
2019-04-20T09:31:21.706Z,12.60
2019-04-20T09:34:04.651Z,11.70
2019-04-20T09:36:46.226Z,11.50
2019-04-20T09:39:29.552Z,11.23
2019-04-20T09:42:20.458Z,11.27
2019-04-20T09:44:55.551Z,11.93
2019-04-20T09:47:46.503Z,10.23
2019-04-20T09:50:27.772Z,11.47
2019-04-20T09:53:02.449Z,21.67
2019-04-20T09:55:28.491Z,12.53
2019-04-20T09:58:02.727Z,12.93
2019-04-20T10:00:41.177Z,12.00
2019-04-20T10:02:53.087Z,11.30
2019-04-20T10:05:23.318Z,10.50
2019-04-20T10:07:58.629Z,11.20
2019-04-20T10:10:33.384Z,12.20
2019-04-20T10:13:19.560Z,10.87
2019-04-20T10:15:49.977Z,12.93
2019-04-20T10:18:19.845Z,17.53
2019-04-20T10:20:49.828Z,11.30
2019-04-20T10:23:20.738Z,14.17
2019-04-20T10:25:54.254Z,14.20
2019-04-20T10:28:25.523Z,11.63
2019-04-20T10:30:56.698Z,11.53
2019-04-20T10:33:27.767Z,12.30
2019-04-20T10:35:59.320Z,10.73
2019-04-20T10:38:33.364Z,11.10
2019-04-20T10:41:11.453Z,10.40
2019-04-20T10:43:35.067Z,10.50
2019-04-20T10:46:06.967Z,15.00
2019-04-20T10:48:41.529Z,10.73
2019-04-20T10:51:08.482Z,19.97
2019-04-20T10:53:38.488Z,10.80
2019-04-20T10:56:09.499Z,12.07
2019-04-20T10:58:40.068Z,11.03
2019-04-20T11:01:11.436Z,11.53
2019-04-20T11:04:00.833Z,15.93
2019-04-20T11:06:30.755Z,13.50
2019-04-20T11:09:00.520Z,13.40
2019-04-20T11:11:32.051Z,15.30
2019-04-20T11:14:08.332Z,12.00
2019-04-20T11:16:34.114Z,14.10
2019-04-20T11:19:07.423Z,11.23
2019-04-20T11:21:38.593Z,14.90
2019-04-20T11:24:34.432Z,13.00
2019-04-20T11:27:04.614Z,18.63
2019-04-20T11:29:34.477Z,13.30
2019-04-20T11:32:14.049Z,16.93
2019-04-20T11:34:44.204Z,13.40
2019-04-20T11:37:15.259Z,17.87
2019-04-20T11:39:50.710Z,11.10
2019-04-20T11:42:21.738Z,12.10
2019-04-20T11:45:02.765Z,12.80
2019-04-20T11:47:33.682Z,14.80
2019-04-20T11:50:03.863Z,10.97
2019-04-20T11:52:38.853Z,29.07
2019-04-20T11:55:06.355Z,9.50
2019-04-20T11:57:37.555Z,9.90
2019-04-20T12:00:08.836Z,11.03
2019-04-20T12:03:16.335Z,8.50
2019-04-20T12:05:44.435Z,18.87
2019-04-20T12:08:32.161Z,11.80
2019-04-20T12:11:18.193Z,10.77
2019-04-20T12:13:34.398Z,15.03
2019-04-20T12:16:05.666Z,12.47
2019-04-20T12:18:37.880Z,12.03
2019-04-20T12:21:16.752Z,9.63
2019-04-20T12:23:50.053Z,8.90
2019-04-20T12:26:20.593Z,11.60
2019-04-20T12:28:51.613Z,13.00
2019-04-20T12:31:27.192Z,13.00
2019-04-20T12:33:54.761Z,10.00
2019-04-20T12:36:25.967Z,11.53
2019-04-20T12:38:57.182Z,10.47
2019-04-20T12:41:37.577Z,11.63
2019-04-20T12:43:59.528Z,9.63
2019-04-20T12:46:29.725Z,16.10
2019-04-20T12:48:59.876Z,11.00
2019-04-20T12:51:33.830Z,14.23
2019-04-20T12:54:06.732Z,13.73
2019-04-20T12:56:36.657Z,10.93
2019-04-20T12:59:07.465Z,11.80
2019-04-20T13:01:37.451Z,11.70
2019-04-20T13:04:09.190Z,12.13
2019-04-20T13:06:39.287Z,11.20
2019-04-20T13:09:18.745Z,12.13
2019-04-20T13:12:05.276Z,9.60
2019-04-20T13:15:00.382Z,13.93
2019-04-20T13:17:30.476Z,13.43
2019-04-20T13:20:00.430Z,10.20
2019-04-20T13:22:37.037Z,16.37
2019-04-20T13:25:07.308Z,13.70
2019-04-20T13:27:37.250Z,15.63
2019-04-20T13:30:09.195Z,13.37
2019-04-20T13:32:39.151Z,13.73
2019-04-20T13:35:10.035Z,10.03
2019-04-20T13:37:41.762Z,10.63
2019-04-20T13:40:11.956Z,9.27
2019-04-20T13:42:41.742Z,11.37
2019-04-20T13:45:12.944Z,11.23
2019-04-20T13:47:43.214Z,13.07
2019-04-20T13:50:14.482Z,14.60
2019-04-20T13:52:44.846Z,11.10
2019-04-20T13:55:15.323Z,10.07
2019-04-20T13:58:00.018Z,11.07
2019-04-20T14:01:00.997Z,16.53
2019-04-20T14:04:03.532Z,11.93
2019-04-20T14:06:35.359Z,12.23
2019-04-20T14:09:07.542Z,11.97
2019-04-20T14:11:39.032Z,16.73
2019-04-20T14:14:09.331Z,10.30
2019-04-20T14:16:39.479Z,14.43
2019-04-20T14:19:09.438Z,11.63
2019-04-20T14:21:39.344Z,11.73
2019-04-20T14:24:09.330Z,10.97
2019-04-20T14:26:41.202Z,15.90
2019-04-20T14:29:12.656Z,12.13
2019-04-20T14:31:43.816Z,12.67
2019-04-20T14:34:14.920Z,13.10
2019-04-20T14:36:44.917Z,12.87
2019-04-20T14:39:16.109Z,11.20
2019-04-20T14:41:46.536Z,24.10
2019-04-20T14:44:16.939Z,15.03
2019-04-20T14:46:47.566Z,11.53
2019-04-20T14:49:18.631Z,13.00
2019-04-20T14:51:49.887Z,12.73
2019-04-20T14:54:23.488Z,10.63
2019-04-20T14:56:53.725Z,14.03
2019-04-20T14:59:33.744Z,14.00
2019-04-20T15:02:10.392Z,11.47
2019-04-20T15:04:41.238Z,15.80
2019-04-20T15:07:11.273Z,16.87
2019-04-20T15:09:42.543Z,13.63
2019-04-20T15:12:13.104Z,19.23
2019-04-20T15:14:44.781Z,12.80
2019-04-20T15:17:33.813Z,17.30
2019-04-20T15:20:15.550Z,12.30
2019-04-20T15:22:50.024Z,16.53
2019-04-20T15:25:21.044Z,16.00
2019-04-20T15:27:52.347Z,14.13
2019-04-20T15:30:22.437Z,11.57
2019-04-20T15:32:52.424Z,10.70
2019-04-20T15:35:23.306Z,14.13
2019-04-20T15:37:55.305Z,12.50
2019-04-20T15:40:25.206Z,12.53
2019-04-20T15:43:05.949Z,10.60
2019-04-20T15:45:27.328Z,11.47
2019-04-20T15:47:58.140Z,11.13
2019-04-20T15:50:29.846Z,17.97
2019-04-20T15:53:00.779Z,11.93
2019-04-20T15:55:37.415Z,10.97
2019-04-20T15:58:06.079Z,14.87
2019-04-20T16:00:36.301Z,14.20
2019-04-20T16:03:31.244Z,12.37
2019-04-20T16:06:07.318Z,12.03
2019-04-20T16:08:57.575Z,9.10
2019-04-20T16:11:28.673Z,12.40
2019-04-20T16:14:00.113Z,9.70
2019-04-20T16:16:31.946Z,10.90
2019-04-20T16:19:03.964Z,11.87
2019-04-20T16:21:36.959Z,11.33
2019-04-20T16:24:12.937Z,12.23
2019-04-20T16:27:09.675Z,14.60
2019-04-20T16:29:40.114Z,12.07
2019-04-20T16:32:09.855Z,9.07
2019-04-20T16:34:40.377Z,8.50
2019-04-20T16:37:10.698Z,7.63
2019-04-20T16:39:40.805Z,11.00
2019-04-20T16:42:12.474Z,9.47
2019-04-20T16:44:43.086Z,15.10
2019-04-20T16:47:14.233Z,8.00
2019-04-20T16:49:48.715Z,8.30
2019-04-20T16:52:19.044Z,8.43
2019-04-20T16:54:50.027Z,7.23
2019-04-20T16:57:20.039Z,9.27
2019-04-20T16:59:52.990Z,9.07
2019-04-20T17:02:40.694Z,7.87
2019-04-20T17:05:11.324Z,7.43
2019-04-20T17:07:44.758Z,8.57
2019-04-20T17:10:16.374Z,14.33
2019-04-20T17:12:46.446Z,8.10
2019-04-20T17:15:16.552Z,9.13
2019-04-20T17:17:49.460Z,8.30
2019-04-20T17:20:19.699Z,7.20
2019-04-20T17:23:10.674Z,7.90
2019-04-20T17:25:41.819Z,5.57
2019-04-20T17:28:49.192Z,9.43
2019-04-20T17:31:27.332Z,15.93
2019-04-20T17:34:27.195Z,7.10
2019-04-20T17:36:42.211Z,5.60
2019-04-20T17:39:15.751Z,6.37
2019-04-20T17:42:00.144Z,7.60
2019-04-20T17:44:34.127Z,7.40
2019-04-20T17:47:01.185Z,6.70
2019-04-20T17:49:34.115Z,7.20
2019-04-20T17:52:17.709Z,7.70
2019-04-20T17:54:35.580Z,10.13
2019-04-20T17:57:08.983Z,6.63
2019-04-20T17:59:40.259Z,10.80
2019-04-20T18:02:44.337Z,7.30
2019-04-20T18:05:53.073Z,10.13
2019-04-20T18:08:27.291Z,7.50
2019-04-20T18:10:50.653Z,8.10
2019-04-20T18:13:17.773Z,6.50
2019-04-20T18:15:58.998Z,12.23
2019-04-20T18:18:59.527Z,8.20
2019-04-20T18:21:26.667Z,8.43
2019-04-20T18:24:00.429Z,6.03
2019-04-20T18:26:48.138Z,6.83
2019-04-20T18:29:20.230Z,8.30
2019-04-20T18:31:57.663Z,6.97
2019-04-20T18:34:45.892Z,9.07
2019-04-20T18:37:17.279Z,7.20
2019-04-20T18:39:53.967Z,10.80
2019-04-20T18:42:24.919Z,10.63
2019-04-20T18:45:09.126Z,8.13
2019-04-20T18:47:55.086Z,7.87
2019-04-20T18:50:20.628Z,8.23
2019-04-20T18:52:42.202Z,6.83
2019-04-20T18:55:22.273Z,7.60
2019-04-20T18:57:46.892Z,6.60
2019-04-20T19:00:26.977Z,8.10
2019-04-20T19:02:54.426Z,8.03
2019-04-20T19:05:22.235Z,14.27
2019-04-20T19:07:59.286Z,15.53
2019-04-20T19:10:29.145Z,21.80
2019-04-20T19:13:28.695Z,24.03
2019-04-20T19:16:16.512Z,24.90
2019-04-20T19:19:00.555Z,23.23
2019-04-20T19:21:17.528Z,23.20
2019-04-20T19:23:55.949Z,27.87
2019-04-20T19:26:21.422Z,26.60
2019-04-20T19:28:54.386Z,25.93
2019-04-20T19:31:41.360Z,27.23
2019-04-20T19:34:13.162Z,26.10
2019-04-20T19:36:34.166Z,25.50
2019-04-20T19:39:16.246Z,22.10
2019-04-20T19:41:38.998Z,21.53
2019-04-20T19:44:13.106Z,19.77
2019-04-20T19:46:49.209Z,19.00
2019-04-20T19:49:18.353Z,20.10
2019-04-20T19:52:12.176Z,19.87
2019-04-20T19:54:33.111Z,17.13
2019-04-20T19:56:58.216Z,19.60
2019-04-20T19:59:26.021Z,19.47
2019-04-20T20:01:47.801Z,16.13
2019-04-20T20:04:17.690Z,21.97
2019-04-20T20:06:53.233Z,20.13
2019-04-20T20:09:20.049Z,22.53
2019-04-20T20:11:51.406Z,19.30
2019-04-20T20:14:31.961Z,18.70
2019-04-20T20:17:13.007Z,19.93
2019-04-20T20:19:38.529Z,23.57
2019-04-20T20:22:09.039Z,19.97
2019-04-20T20:24:27.507Z,19.80
2019-04-20T20:27:02.558Z,18.10
2019-04-20T20:29:36.630Z,20.17
2019-04-20T20:32:13.262Z,15.63
2019-04-20T20:34:38.408Z,14.40
2019-04-20T20:37:08.998Z,16.43
2019-04-20T20:39:38.650Z,14.43
2019-04-20T20:42:22.014Z,22.03
2019-04-20T20:44:45.713Z,18.10
2019-04-20T20:47:33.871Z,17.87
2019-04-20T20:50:09.816Z,18.37
2019-04-20T20:52:32.289Z,17.00
2019-04-20T20:54:53.982Z,18.83
2019-04-20T20:57:20.672Z,16.30
2019-04-20T20:59:55.651Z,18.47
2019-04-20T21:02:47.353Z,21.73
2019-04-20T21:05:11.663Z,22.50
2019-04-20T21:07:42.748Z,19.90
2019-04-20T21:10:15.282Z,19.70
2019-04-20T21:12:52.034Z,23.10
2019-04-20T21:15:21.005Z,20.20
2019-04-20T21:18:31.325Z,24.37
2019-04-20T21:20:55.139Z,25.80
2019-04-20T21:23:22.482Z,23.53
2019-04-20T21:25:59.093Z,27.40
2019-04-20T21:28:31.045Z,25.00
2019-04-20T21:31:10.502Z,27.60
2019-04-20T21:33:51.479Z,30.23
2019-04-20T21:36:27.228Z,25.50
2019-04-20T21:38:53.904Z,26.87
2019-04-20T21:41:27.493Z,28.27
2019-04-20T21:43:58.094Z,28.20
2019-04-20T21:46:29.843Z,25.97
2019-04-20T21:49:12.788Z,31.77
2019-04-20T21:51:42.515Z,26.70
2019-04-20T21:54:27.863Z,26.60
2019-04-20T21:57:03.409Z,29.73
2019-04-20T21:59:36.257Z,31.27
2019-04-20T22:02:09.840Z,29.10
2019-04-20T22:04:33.474Z,31.50
2019-04-20T22:07:04.654Z,26.60
2019-04-20T22:09:55.363Z,35.30
2019-04-20T22:12:28.468Z,34.33
2019-04-20T22:15:04.173Z,32.50
2019-04-20T22:17:33.107Z,29.20
2019-04-20T22:20:13.227Z,32.50
2019-04-20T22:22:49.425Z,32.77
2019-04-20T22:25:25.743Z,33.50
2019-04-20T22:27:36.678Z,37.00
2019-04-20T22:30:08.239Z,43.40
2019-04-20T22:32:44.176Z,41.43
2019-04-20T22:35:14.142Z,41.63
2019-04-20T22:37:52.106Z,42.60
2019-04-20T22:40:24.979Z,44.27
2019-04-20T22:42:54.434Z,39.20
2019-04-20T22:45:23.339Z,40.77
2019-04-20T22:48:02.265Z,37.30
2019-04-20T22:50:40.118Z,37.90
2019-04-20T22:53:14.987Z,38.13
2019-04-20T22:55:47.315Z,35.43
2019-04-20T22:58:10.383Z,34.97
2019-04-20T23:00:39.256Z,39.00
2019-04-20T23:03:02.848Z,37.83
2019-04-20T23:05:33.084Z,35.80
2019-04-20T23:08:22.451Z,37.43
2019-04-20T23:10:53.529Z,34.70
2019-04-20T23:13:29.418Z,33.47
2019-04-20T23:16:00.127Z,36.10
2019-04-20T23:18:28.433Z,37.00
2019-04-20T23:21:01.297Z,39.73
2019-04-20T23:23:30.950Z,36.63
2019-04-20T23:26:01.203Z,36.43
2019-04-20T23:28:31.308Z,35.00
2019-04-20T23:31:07.343Z,42.40
2019-04-20T23:33:33.759Z,34.53
2019-04-20T23:36:05.072Z,38.87
2019-04-20T23:38:35.187Z,40.07
2019-04-20T23:41:05.982Z,38.70
2019-04-20T23:44:16.081Z,38.17
2019-04-20T23:47:04.550Z,44.10
2019-04-20T23:49:42.845Z,36.20
2019-04-20T23:52:26.956Z,38.33
2019-04-20T23:54:35.346Z,36.10
2019-04-20T23:57:05.811Z,44.30
2019-04-20T23:59:41.160Z,40.93
